Terminal Aerodrome Forecast
Issued by NWS

Current Version | Previous Version | Text Only | Print | Product List | Glossary On
Versions: 1 2 3 4 5 6 7 8 9 10 11 12 13 14 15
000
FTUS44 KEPZ 230000 RRA
TAFTCS
TAF
KTCS 230017Z 2300/2324 16011KT P6SM VCSH SCT060 SCT120 BKN250
      TEMPO 2300/2302 -SHRA BKN040
     FM230400 24008KT P6SM FEW040 BKN120
     FM231700 29007KT P6SM FEW060 SCT250=

USA.gov is the U.S. government's official web portal to all federal, state and local government web resources and services.